Wetterdaten: Woche 11.09.17 - 17.09.17 (KW37)
Datum Zeit Temperatur Luftfeuchte Luftdruck Niederschlag Windrichtung Sonnenschein Solar Wind
11.09.2017 00:00 9,2 C 94 % 1005,3 hPa 0,0 l/m N 0,00 h 0 W/m 0,0 km/h (0 Bft)
11.09.2017 01:00 8,4 C 96 % 1005,0 hPa 0,0 l/m N 0,00 h 0 W/m 0,0 km/h (0 Bft)
11.09.2017 02:00 7,8 C 97 % 1004,7 hPa 0,0 l/m N 0,00 h 0 W/m 0,0 km/h (0 Bft)
11.09.2017 03:00 7,4 C 97 % 1004,6 hPa 0,0 l/m N 0,00 h 0 W/m 0,0 km/h (0 Bft)
11.09.2017 04:00 7,2 C 98 % 1004,2 hPa 0,0 l/m N 0,00 h 0 W/m 0,0 km/h (0 Bft)
11.09.2017 05:00 7,0 C 98 % 1003,5 hPa 0,0 l/m N 0,00 h 0 W/m 0,3 km/h (0 Bft)
11.09.2017 06:00 7,4 C 98 % 1003,1 hPa 0,0 l/m SW 0,00 h 6 W/m 1,2 km/h (1 Bft)
11.09.2017 07:00 8,0 C 98 % 1002,9 hPa 0,0 l/m SW 0,83 h 66 W/m 6,1 km/h (2 Bft)
11.09.2017 08:00 9,6 C 99 % 1002,7 hPa 0,0 l/m SW 0,83 h 213 W/m 7,8 km/h (2 Bft)
11.09.2017 09:00 12,8 C 89 % 1002,3 hPa 0,0 l/m SW 1,00 h 387 W/m 20,9 km/h (4 Bft)
11.09.2017 10:00 13,8 C 79 % 1002,5 hPa 0,0 l/m W-SW 0,25 h 229 W/m 20,8 km/h (4 Bft)
11.09.2017 11:00 14,3 C 76 % 1002,5 hPa 0,0 l/m W-SW 0,17 h 341 W/m 18,5 km/h (3 Bft)
11.09.2017 12:00 15,4 C 75 % 1002,5 hPa 0,0 l/m W-SW 0,50 h 375 W/m 20,9 km/h (4 Bft)
11.09.2017 13:00 15,1 C 78 % 1002,6 hPa 0,0 l/m W-SW 0,08 h 246 W/m 16,5 km/h (3 Bft)
11.09.2017 14:00 16,3 C 74 % 1002,8 hPa 0,0 l/m W-SW 0,33 h 373 W/m 22,9 km/h (4 Bft)
11.09.2017 15:00 15,6 C 73 % 1003,0 hPa 0,0 l/m W 0,00 h 252 W/m 21,3 km/h (4 Bft)
11.09.2017 16:00 14,8 C 75 % 1002,8 hPa 0,0 l/m W-SW 0,00 h 196 W/m 16,2 km/h (3 Bft)
11.09.2017 17:00 14,6 C 77 % 1003,4 hPa 0,0 l/m W-SW 0,08 h 147 W/m 13,6 km/h (3 Bft)
11.09.2017 18:00 14,7 C 75 % 1003,8 hPa 0,0 l/m W-SW 0,58 h 114 W/m 12,1 km/h (2 Bft)
11.09.2017 19:00 13,1 C 73 % 1004,5 hPa 0,0 l/m W 0,00 h 15 W/m 8,7 km/h (2 Bft)
11.09.2017 20:00 12,4 C 78 % 1005,1 hPa 0,0 l/m W-SW 0,00 h 0 W/m 7,2 km/h (2 Bft)
11.09.2017 21:00 11,9 C 78 % 1005,7 hPa 0,0 l/m W-SW 0,00 h 0 W/m 11,7 km/h (2 Bft)
11.09.2017 22:00 12,1 C 78 % 1006,2 hPa 0,0 l/m W-SW 0,00 h 0 W/m 11,8 km/h (2 Bft)
11.09.2017 23:00 11,6 C 81 % 1006,6 hPa 0,0 l/m W-SW 0,00 h 0 W/m 8,8 km/h (2 Bft)
12.09.2017 00:00 10,3 C 86 % 1006,3 hPa 0,0 l/m W-SW 0,00 h 0 W/m 6,4 km/h (2 Bft)
12.09.2017 01:00 8,8 C 93 % 1006,3 hPa 0,0 l/m W-SW 0,00 h 0 W/m 3,1 km/h (1 Bft)
12.09.2017 02:00 9,1 C 94 % 1005,9 hPa 0,0 l/m W-SW 0,00 h 0 W/m 3,5 km/h (1 Bft)
12.09.2017 03:00 9,0 C 94 % 1006,0 hPa 0,0 l/m W-SW 0,00 h 0 W/m 0,7 km/h (0 Bft)
12.09.2017 04:00 9,3 C 94 % 1006,0 hPa 0,0 l/m W-SW 0,00 h 0 W/m 8,0 km/h (2 Bft)
12.09.2017 05:00 9,6 C 92 % 1006,1 hPa 0,0 l/m W-SW 0,00 h 0 W/m 9,7 km/h (2 Bft)
12.09.2017 06:00 10,0 C 90 % 1006,3 hPa 0,0 l/m W-SW 0,00 h 0 W/m 16,5 km/h (3 Bft)
12.09.2017 07:00 10,4 C 89 % 1006,6 hPa 0,2 l/m W-SW 0,00 h 16 W/m 16,2 km/h (3 Bft)
12.09.2017 08:00 10,1 C 93 % 1007,0 hPa 0,0 l/m W-SW 0,00 h 69 W/m 16,2 km/h (3 Bft)
12.09.2017 09:00 11,2 C 90 % 1007,6 hPa 0,0 l/m W-SW 0,50 h 255 W/m 22,4 km/h (4 Bft)
12.09.2017 10:00 12,1 C 85 % 1008,3 hPa 0,0 l/m W 0,17 h 220 W/m 20,2 km/h (4 Bft)
12.09.2017 11:00 12,7 C 81 % 1008,5 hPa 0,0 l/m W 0,08 h 188 W/m 16,9 km/h (3 Bft)
12.09.2017 12:00 13,5 C 78 % 1008,7 hPa 0,0 l/m W-SW 0,17 h 270 W/m 14,9 km/h (3 Bft)
12.09.2017 13:00 13,9 C 78 % 1009,3 hPa 1,4 l/m W 0,25 h 324 W/m 15,4 km/h (3 Bft)
12.09.2017 14:00 13,4 C 87 % 1009,8 hPa 0,2 l/m W 0,67 h 606 W/m 9,7 km/h (2 Bft)
12.09.2017 15:00 13,1 C 82 % 1010,1 hPa 4,0 l/m W-SW 0,00 h 127 W/m 16,8 km/h (3 Bft)
12.09.2017 16:00 12,1 C 91 % 1010,8 hPa 0,0 l/m W 0,33 h 317 W/m 9,9 km/h (2 Bft)
12.09.2017 17:00 13,6 C 82 % 1011,3 hPa 0,0 l/m W 0,83 h 257 W/m 11,4 km/h (2 Bft)
12.09.2017 18:00 13,1 C 83 % 1011,9 hPa 0,0 l/m W-SW 0,08 h 40 W/m 12,9 km/h (3 Bft)
12.09.2017 19:00 12,1 C 87 % 1012,6 hPa 0,0 l/m SW 0,08 h 20 W/m 9,3 km/h (2 Bft)
12.09.2017 20:00 11,0 C 89 % 1013,6 hPa 0,0 l/m SW 0,00 h 0 W/m 10,3 km/h (2 Bft)
12.09.2017 21:00 9,8 C 91 % 1014,6 hPa 0,0 l/m SW 0,00 h 0 W/m 8,7 km/h (2 Bft)
12.09.2017 22:00 9,6 C 92 % 1015,1 hPa 0,0 l/m SW 0,00 h 0 W/m 11,3 km/h (2 Bft)
12.09.2017 23:00 9,9 C 92 % 1015,3 hPa 0,0 l/m SW 0,00 h 0 W/m 10,3 km/h (2 Bft)
13.09.2017 00:00 9,6 C 93 % 1015,1 hPa 0,0 l/m SW 0,00 h 0 W/m 10,3 km/h (2 Bft)
13.09.2017 01:00 8,9 C 94 % 1014,9 hPa 0,0 l/m SW 0,00 h 0 W/m 9,1 km/h (2 Bft)
13.09.2017 02:00 8,4 C 95 % 1014,5 hPa 0,0 l/m SW 0,00 h 0 W/m 8,7 km/h (2 Bft)
13.09.2017 03:00 8,2 C 95 % 1014,2 hPa 0,0 l/m SW 0,00 h 0 W/m 12,1 km/h (2 Bft)
13.09.2017 04:00 7,5 C 94 % 1013,5 hPa 0,0 l/m SW 0,00 h 0 W/m 8,2 km/h (2 Bft)
13.09.2017 05:00 7,2 C 96 % 1012,7 hPa 0,2 l/m SW 0,00 h 0 W/m 4,5 km/h (1 Bft)
13.09.2017 06:00 6,7 C 96 % 1012,0 hPa 0,0 l/m SW 0,00 h 7 W/m 4,0 km/h (1 Bft)
13.09.2017 07:00 7,8 C 94 % 1011,6 hPa 0,0 l/m SW 0,67 h 55 W/m 13,8 km/h (3 Bft)
13.09.2017 08:00 10,4 C 82 % 1011,2 hPa 0,0 l/m SW 0,08 h 93 W/m 21,6 km/h (4 Bft)
13.09.2017 09:00 11,2 C 78 % 1011,0 hPa 0,0 l/m SW 0,00 h 102 W/m 24,5 km/h (4 Bft)
13.09.2017 10:00 12,2 C 72 % 1011,0 hPa 0,0 l/m W-SW 0,00 h 101 W/m 29,2 km/h (5 Bft)
13.09.2017 11:00 12,6 C 75 % 1011,1 hPa 0,6 l/m W-SW 0,00 h 105 W/m 24,1 km/h (4 Bft)
13.09.2017 12:00 12,1 C 85 % 1011,0 hPa 0,2 l/m W-SW 0,00 h 232 W/m 30,1 km/h (5 Bft)
13.09.2017 13:00 14,0 C 79 % 1011,1 hPa 0,0 l/m W-SW 0,00 h 259 W/m 33,7 km/h (5 Bft)
13.09.2017 14:00 14,3 C 82 % 1011,4 hPa 0,0 l/m W-SW 0,00 h 191 W/m 33,8 km/h (5 Bft)
13.09.2017 15:00 15,2 C 83 % 1010,8 hPa 0,0 l/m W-SW 0,00 h 217 W/m 33,7 km/h (5 Bft)
13.09.2017 16:00 15,8 C 83 % 1010,3 hPa 0,2 l/m W-SW 0,17 h 187 W/m 37,2 km/h (5 Bft)
13.09.2017 17:00 17,0 C 80 % 1009,8 hPa 0,0 l/m W-SW 0,33 h 191 W/m 37,7 km/h (5 Bft)
13.09.2017 18:00 16,9 C 80 % 1009,2 hPa 0,0 l/m SW 0,00 h 61 W/m 32,7 km/h (5 Bft)
13.09.2017 19:00 17,0 C 80 % 1008,5 hPa 0,0 l/m W-SW 0,00 h 12 W/m 30,3 km/h (5 Bft)
13.09.2017 20:00 17,6 C 77 % 1008,4 hPa 0,0 l/m W 0,00 h 0 W/m 35,8 km/h (5 Bft)
13.09.2017 21:00 18,2 C 74 % 1008,4 hPa 0,0 l/m W-SW 0,00 h 0 W/m 40,0 km/h (6 Bft)
13.09.2017 22:00 18,4 C 73 % 1008,1 hPa 0,0 l/m W-SW 0,00 h 0 W/m 38,9 km/h (6 Bft)
13.09.2017 23:00 18,4 C 72 % 1007,9 hPa 0,0 l/m W-SW 0,00 h 0 W/m 31,4 km/h (5 Bft)
14.09.2017 00:00 18,7 C 72 % 1007,2 hPa 0,0 l/m W-SW 0,00 h 0 W/m 36,2 km/h (5 Bft)
14.09.2017 01:00 18,4 C 73 % 1006,4 hPa 0,0 l/m W-SW 0,00 h 0 W/m 36,6 km/h (5 Bft)
14.09.2017 02:00 18,2 C 74 % 1005,6 hPa 0,0 l/m W-SW 0,00 h 0 W/m 33,3 km/h (5 Bft)
14.09.2017 03:00 18,0 C 74 % 1004,7 hPa 0,0 l/m W-SW 0,00 h 0 W/m 26,8 km/h (4 Bft)
14.09.2017 04:00 16,4 C 80 % 1004,2 hPa 0,0 l/m SW 0,00 h 0 W/m 23,7 km/h (4 Bft)
14.09.2017 05:00 15,8 C 81 % 1003,9 hPa 0,0 l/m SW 0,00 h 0 W/m 17,3 km/h (3 Bft)
14.09.2017 06:00 17,1 C 75 % 1003,3 hPa 0,0 l/m SW 0,00 h 5 W/m 20,7 km/h (4 Bft)
14.09.2017 07:00 17,8 C 71 % 1002,7 hPa 0,0 l/m W-SW 0,42 h 49 W/m 25,5 km/h (4 Bft)
14.09.2017 08:00 17,8 C 74 % 1002,1 hPa 0,0 l/m SW 0,75 h 176 W/m 22,5 km/h (4 Bft)
14.09.2017 09:00 19,5 C 66 % 1002,3 hPa 0,0 l/m W-SW 0,50 h 253 W/m 34,5 km/h (5 Bft)
14.09.2017 10:00 13,6 C 79 % 1004,8 hPa 0,0 l/m N-NW 0,00 h 115 W/m 23,4 km/h (4 Bft)
14.09.2017 11:00 11,4 C 82 % 1006,8 hPa 0,4 l/m W-NW 0,00 h 71 W/m 26,3 km/h (4 Bft)
14.09.2017 12:00 9,8 C 90 % 1009,0 hPa 2,0 l/m W-SW 0,00 h 62 W/m 16,6 km/h (3 Bft)
14.09.2017 13:00 9,2 C 93 % 1009,9 hPa 3,2 l/m SW 0,00 h 55 W/m 23,8 km/h (4 Bft)
14.09.2017 14:00 8,6 C 94 % 1010,2 hPa 0,6 l/m W-SW 0,00 h 77 W/m 22,4 km/h (4 Bft)
14.09.2017 15:00 8,5 C 93 % 1010,9 hPa 0,4 l/m W-SW 0,00 h 83 W/m 25,2 km/h (4 Bft)
14.09.2017 16:00 8,8 C 92 % 1011,0 hPa 0,0 l/m W-SW 0,08 h 162 W/m 29,4 km/h (5 Bft)
14.09.2017 17:00 10,1 C 88 % 1011,3 hPa 0,0 l/m W 0,33 h 180 W/m 31,7 km/h (5 Bft)
14.09.2017 18:00 10,0 C 85 % 1012,0 hPa 0,0 l/m W 0,33 h 84 W/m 31,7 km/h (5 Bft)
14.09.2017 19:00 9,1 C 87 % 1012,4 hPa 0,0 l/m W 0,08 h 12 W/m 31,5 km/h (5 Bft)
14.09.2017 20:00 8,8 C 85 % 1013,5 hPa 0,0 l/m W-SW 0,00 h 0 W/m 29,9 km/h (5 Bft)
14.09.2017 21:00 8,4 C 86 % 1014,7 hPa 0,0 l/m W-SW 0,00 h 0 W/m 19,8 km/h (4 Bft)
14.09.2017 22:00 7,8 C 90 % 1015,2 hPa 0,0 l/m SW 0,00 h 0 W/m 13,0 km/h (3 Bft)
14.09.2017 23:00 7,2 C 93 % 1015,7 hPa 0,0 l/m SW 0,00 h 0 W/m 9,8 km/h (2 Bft)
15.09.2017 00:00 7,5 C 95 % 1015,7 hPa 0,0 l/m SW 0,00 h 0 W/m 13,3 km/h (3 Bft)
15.09.2017 01:00 8,1 C 94 % 1015,4 hPa 0,0 l/m SW 0,00 h 0 W/m 12,4 km/h (3 Bft)
15.09.2017 02:00 8,2 C 93 % 1015,3 hPa 0,0 l/m SW 0,00 h 0 W/m 11,4 km/h (2 Bft)
15.09.2017 03:00 8,0 C 93 % 1015,3 hPa 0,0 l/m SW 0,00 h 0 W/m 9,4 km/h (2 Bft)
15.09.2017 04:00 7,7 C 94 % 1014,7 hPa 0,0 l/m SW 0,00 h 0 W/m 9,8 km/h (2 Bft)
15.09.2017 05:00 7,3 C 94 % 1014,5 hPa 0,0 l/m W-SW 0,00 h 0 W/m 6,3 km/h (2 Bft)
15.09.2017 06:00 6,6 C 94 % 1014,2 hPa 0,0 l/m N 0,00 h 5 W/m 0,3 km/h (0 Bft)
15.09.2017 07:00 5,8 C 95 % 1014,2 hPa 0,0 l/m N 0,67 h 50 W/m 0,0 km/h (0 Bft)
15.09.2017 08:00 7,0 C 96 % 1014,0 hPa 0,0 l/m W-SW 0,75 h 168 W/m 1,3 km/h (1 Bft)
15.09.2017 09:00 9,5 C 90 % 1013,9 hPa 0,0 l/m SW 1,00 h 378 W/m 5,2 km/h (1 Bft)
15.09.2017 10:00 11,6 C 80 % 1013,6 hPa 0,0 l/m SW 1,00 h 537 W/m 3,1 km/h (1 Bft)
15.09.2017 11:00 13,2 C 73 % 1013,4 hPa 0,0 l/m SW 0,92 h 694 W/m 6,7 km/h (2 Bft)
15.09.2017 12:00 13,8 C 67 % 1013,1 hPa 0,0 l/m SW 0,42 h 467 W/m 2,5 km/h (1 Bft)
15.09.2017 13:00 13,8 C 60 % 1013,1 hPa 0,0 l/m W 0,08 h 281 W/m 8,2 km/h (2 Bft)
15.09.2017 14:00 14,3 C 59 % 1012,7 hPa 0,0 l/m W-SW 0,17 h 311 W/m 8,4 km/h (2 Bft)
15.09.2017 15:00 15,3 C 57 % 1012,2 hPa 0,0 l/m S-SW 0,67 h 530 W/m 12,0 km/h (2 Bft)
15.09.2017 16:00 15,9 C 55 % 1011,3 hPa 0,0 l/m SW 1,00 h 444 W/m 12,9 km/h (3 Bft)
15.09.2017 17:00 15,5 C 55 % 1010,7 hPa 0,0 l/m SW 1,00 h 304 W/m 11,6 km/h (2 Bft)
15.09.2017 18:00 14,0 C 61 % 1010,8 hPa 0,0 l/m SW 0,42 h 98 W/m 8,5 km/h (2 Bft)
15.09.2017 19:00 11,7 C 70 % 1010,9 hPa 0,0 l/m SW 0,00 h 15 W/m 2,3 km/h (1 Bft)
15.09.2017 20:00 10,3 C 78 % 1011,3 hPa 0,0 l/m N 0,00 h 0 W/m 0,0 km/h (0 Bft)
15.09.2017 21:00 9,0 C 85 % 1011,0 hPa 0,0 l/m N 0,00 h 0 W/m 0,0 km/h (0 Bft)
15.09.2017 22:00 8,3 C 90 % 1010,9 hPa 0,0 l/m N 0,00 h 0 W/m 0,0 km/h (0 Bft)
15.09.2017 23:00 7,9 C 92 % 1010,9 hPa 0,0 l/m N 0,00 h 0 W/m 0,0 km/h (0 Bft)
16.09.2017 00:00 7,8 C 92 % 1010,5 hPa 0,0 l/m NW 0,00 h 0 W/m 6,1 km/h (2 Bft)
16.09.2017 01:00 7,7 C 91 % 1010,5 hPa 0,0 l/m NW 0,00 h 0 W/m 1,2 km/h (1 Bft)
16.09.2017 02:00 7,3 C 94 % 1010,4 hPa 0,0 l/m N 0,00 h 0 W/m 0,0 km/h (0 Bft)
16.09.2017 03:00 7,3 C 94 % 1010,1 hPa 0,0 l/m N 0,00 h 0 W/m 0,0 km/h (0 Bft)
16.09.2017 04:00 7,1 C 96 % 1010,0 hPa 0,0 l/m N 0,00 h 0 W/m 0,0 km/h (0 Bft)
16.09.2017 05:00 7,2 C 96 % 1009,8 hPa 0,0 l/m N 0,00 h 0 W/m 0,0 km/h (0 Bft)
16.09.2017 06:00 7,2 C 96 % 1009,8 hPa 0,0 l/m N 0,00 h 0 W/m 0,0 km/h (0 Bft)
16.09.2017 07:00 7,1 C 96 % 1009,7 hPa 0,0 l/m N 0,00 h 16 W/m 0,0 km/h (0 Bft)
16.09.2017 08:00 7,5 C 97 % 1010,2 hPa 0,0 l/m N 0,00 h 62 W/m 0,0 km/h (0 Bft)
16.09.2017 09:00 8,6 C 95 % 1010,5 hPa 0,0 l/m N 0,25 h 183 W/m 0,4 km/h (0 Bft)
16.09.2017 10:00 9,9 C 88 % 1010,9 hPa 0,0 l/m W-NW 0,08 h 228 W/m 1,9 km/h (1 Bft)
16.09.2017 11:00 12,0 C 77 % 1010,7 hPa 0,0 l/m S-SW 0,92 h 547 W/m 10,5 km/h (2 Bft)
16.09.2017 12:00 13,5 C 71 % 1010,4 hPa 0,0 l/m SW 0,83 h 562 W/m 12,4 km/h (3 Bft)
16.09.2017 13:00 15,0 C 62 % 1010,0 hPa 0,0 l/m S-SO 0,92 h 675 W/m 13,2 km/h (3 Bft)
16.09.2017 14:00 15,6 C 59 % 1009,8 hPa 0,0 l/m S 0,75 h 605 W/m 11,0 km/h (2 Bft)
16.09.2017 15:00 14,1 C 64 % 1009,7 hPa 0,0 l/m N-NO 0,08 h 248 W/m 11,3 km/h (2 Bft)
16.09.2017 16:00 13,8 C 70 % 1009,6 hPa 0,0 l/m N-NO 0,75 h 384 W/m 10,2 km/h (2 Bft)
16.09.2017 17:00 13,8 C 71 % 1009,8 hPa 0,0 l/m N 0,67 h 252 W/m 12,2 km/h (2 Bft)
16.09.2017 18:00 11,3 C 80 % 1010,5 hPa 0,0 l/m NW 0,00 h 36 W/m 10,2 km/h (2 Bft)
16.09.2017 19:00 9,7 C 88 % 1010,9 hPa 0,2 l/m N 0,00 h 8 W/m 5,2 km/h (1 Bft)
16.09.2017 20:00 9,2 C 92 % 1011,5 hPa 0,0 l/m N 0,00 h 0 W/m 1,3 km/h (1 Bft)
16.09.2017 21:00 8,8 C 94 % 1012,1 hPa 0,0 l/m N 0,00 h 0 W/m 0,8 km/h (0 Bft)
16.09.2017 22:00 8,8 C 94 % 1012,5 hPa 1,0 l/m N 0,00 h 0 W/m 0,9 km/h (0 Bft)
16.09.2017 23:00 8,3 C 96 % 1012,3 hPa 0,0 l/m N 0,00 h 0 W/m 0,0 km/h (0 Bft)
17.09.2017 00:00 7,4 C 97 % 1012,2 hPa 0,0 l/m N 0,00 h 0 W/m 0,0 km/h (0 Bft)
17.09.2017 01:00 6,9 C 97 % 1011,9 hPa 0,0 l/m N 0,00 h 0 W/m 0,0 km/h (0 Bft)
17.09.2017 02:00 7,0 C 98 % 1011,8 hPa 0,2 l/m N 0,00 h 0 W/m 0,0 km/h (0 Bft)
17.09.2017 03:00 6,7 C 98 % 1011,6 hPa 0,0 l/m N 0,00 h 0 W/m 0,0 km/h (0 Bft)
17.09.2017 04:00 6,6 C 98 % 1011,9 hPa 0,0 l/m N 0,00 h 0 W/m 0,0 km/h (0 Bft)
17.09.2017 05:00 6,3 C 98 % 1011,9 hPa 0,0 l/m N 0,00 h 0 W/m 0,0 km/h (0 Bft)
17.09.2017 06:00 6,1 C 99 % 1012,1 hPa 0,0 l/m N 0,00 h 0 W/m 0,0 km/h (0 Bft)
17.09.2017 07:00 6,3 C 99 % 1012,6 hPa 0,0 l/m N 0,00 h 8 W/m 0,0 km/h (0 Bft)
17.09.2017 08:00 7,0 C 99 % 1012,8 hPa 0,0 l/m N 0,00 h 72 W/m 0,0 km/h (0 Bft)
17.09.2017 09:00 7,9 C 99 % 1013,2 hPa 0,0 l/m N 0,33 h 207 W/m 0,0 km/h (0 Bft)
17.09.2017 10:00 9,6 C 94 % 1013,1 hPa 0,0 l/m NW 0,92 h 525 W/m 1,3 km/h (1 Bft)
17.09.2017 11:00 11,1 C 82 % 1012,9 hPa 0,0 l/m NW 0,67 h 524 W/m 3,6 km/h (1 Bft)
17.09.2017 12:00 13,3 C 73 % 1012,4 hPa 0,0 l/m W 0,92 h 677 W/m 5,2 km/h (1 Bft)
17.09.2017 13:00 14,1 C 67 % 1012,0 hPa 0,0 l/m W-NW 0,67 h 658 W/m 7,1 km/h (2 Bft)
17.09.2017 14:00 14,3 C 66 % 1011,6 hPa 0,0 l/m W-SW 0,67 h 544 W/m 5,2 km/h (1 Bft)
17.09.2017 15:00 15,5 C 59 % 1011,1 hPa 0,0 l/m S-SW 0,83 h 534 W/m 6,7 km/h (2 Bft)
17.09.2017 16:00 15,1 C 60 % 1010,9 hPa 0,0 l/m S-SW 0,33 h 284 W/m 5,7 km/h (1 Bft)
17.09.2017 17:00 14,1 C 66 % 1010,9 hPa 0,0 l/m N-NW 0,33 h 163 W/m 9,8 km/h (2 Bft)
17.09.2017 18:00 11,8 C 76 % 1011,3 hPa 0,0 l/m N-NW 0,17 h 63 W/m 4,0 km/h (1 Bft)
17.09.2017 19:00 10,7 C 81 % 1011,8 hPa 0,0 l/m N 0,25 h 17 W/m 0,7 km/h (0 Bft)
17.09.2017 20:00 8,6 C 90 % 1012,3 hPa 0,0 l/m N 0,00 h 0 W/m 0,0 km/h (0 Bft)
17.09.2017 21:00 8,7 C 92 % 1012,9 hPa 0,0 l/m N 0,00 h 0 W/m 0,0 km/h (0 Bft)
17.09.2017 22:00 9,3 C 91 % 1013,6 hPa 1,2 l/m W-SW 0,00 h 0 W/m 8,8 km/h (2 Bft)
17.09.2017 23:00 8,2 C 93 % 1014,3 hPa 2,6 l/m W-SW 0,00 h 0 W/m 16,4 km/h (3 Bft)
Min-Datum _ 15.09.17 15.09.17 14.09.17 - - - - 11.09.17
_ Min-Zeit 07:10 15:55 08:55 - - - - 00:00
Minimum _ 5,7 C 53 % 1001,8 hPa - - - - 0,0 km/h (0 Bft)
Max-Datum _ 14.09.17 11.09.17 14.09.17 12.09.17 - 11.09.17 12.09.17 14.09.17
_ Max-Zeit 09:35 07:35 23:30 15:40 - 07:05 13:10 09:55
Maximum _ 20,2 C 99 % 1015,9 hPa 4,0 l/m - 0,08 h 1136 W/m 53,1 km/h
W-SW (7 Bft)
Durchschnitt _ 11,2 C 84 % 1009,8 hPa #18,8 l/m W-SW #31:00 h 223 W/m 12,2 km/h (2 Bft)